Time;durP1;ratioP1;P1;durP2;ratioP2;P2;SDS_P1;SDS_P2;PMS_P1;PMS_P2;Temp;Humidity;BMP_temperature;BMP_pressure;BME280_temperature;BME280_humidity;BME280_pressure;Samples;Min_cycle;Max_cycle;Signal;HPM_P1;HPM_P2
2023/10/13 00:00:25;;;;;;;1.10;0.93;;;;;;;17.45;100.00;95984.84;1019042;29;20047;-77
2023/10/13 00:00:58;;;;;;;3.78;0.45;;;;;;;17.41;100.00;95984.66;1015932;29;20096;-77
2023/10/13 00:01:29;;;;;;;1.02;1.00;;;;;;;17.43;100.00;95987.00;1020438;29;20054;-77
2023/10/13 00:02:01;;;;;;;0.55;0.55;;;;;;;17.45;100.00;95984.84;1016710;29;20039;-74
2023/10/13 00:02:33;;;;;;;1.67;1.23;;;;;;;17.47;100.00;95993.31;1002796;29;20419;-76
2023/10/13 00:03:05;;;;;;;0.30;0.30;;;;;;;17.47;100.00;95987.19;1005220;29;20033;-76
2023/10/13 00:03:36;;;;;;;0.32;0.32;;;;;;;17.48;100.00;95991.44;1014964;29;20139;-77
2023/10/13 00:04:08;;;;;;;2.05;0.65;;;;;;;17.48;100.00;95994.84;1018948;29;20054;-78
2023/10/13 00:04:38;;;;;;;0.60;0.60;;;;;;;17.48;100.00;95989.56;1016081;29;20032;-76
2023/10/13 00:05:09;;;;;;;1.30;0.60;;;;;;;17.50;100.00;95994.53;1019249;29;20631;-76
2023/10/13 00:05:41;;;;;;;0.47;0.10;;;;;;;17.46;100.00;95986.41;1022688;29;20034;-76
2023/10/13 00:06:11;;;;;;;0.65;0.43;;;;;;;17.47;100.00;95993.31;1019106;28;20046;-76
2023/10/13 00:06:42;;;;;;;0.03;0.03;;;;;;;17.50;100.00;95990.03;1022937;29;20035;-78
2023/10/13 00:07:13;;;;;;;0.13;0.13;;;;;;;17.49;100.00;95991.13;1022731;29;20048;-76
2023/10/13 00:07:43;;;;;;;1.20;0.32;;;;;;;17.48;100.00;95989.56;1014681;29;20032;-76
2023/10/13 00:08:14;;;;;;;0.28;0.28;;;;;;;17.48;100.00;95991.44;1014792;29;20034;-76
2023/10/13 00:08:45;;;;;;;3.30;0.70;;;;;;;17.46;100.00;95991.72;1015060;29;20028;-75
2023/10/13 00:09:16;;;;;;;0.15;0.15;;;;;;;17.41;100.00;95984.66;1022597;29;20512;-77
2023/10/13 00:09:47;;;;;;;1.77;0.70;;;;;;;17.47;100.00;95988.00;1014764;29;20072;-76
2023/10/13 00:10:18;;;;;;;2.20;1.65;;;;;;;17.47;100.00;95992.50;1014975;29;20047;-76
2023/10/13 00:10:49;;;;;;;0.10;0.10;;;;;;;17.48;100.00;95994.06;1011173;29;20494;-76
2023/10/13 00:11:21;;;;;;;0.45;0.45;;;;;;;17.46;100.00;95988.28;1011393;29;20068;-75
2023/10/13 00:11:53;;;;;;;9.95;0.45;;;;;;;17.51;100.00;95994.25;1018831;29;20368;-76
2023/10/13 00:12:24;;;;;;;2.42;1.02;;;;;;;17.50;100.00;95991.91;1014345;29;20071;-75
2023/10/13 00:13:05;;;;;;;0.73;0.40;;;;;;;17.47;100.00;95993.31;1014883;29;20576;-76
2023/10/13 00:13:43;;;;;;;0.55;0.35;;;;;;;17.44;100.00;95986.72;1018990;29;20029;-76
2023/10/13 00:14:16;;;;;;;0.73;0.60;;;;;;;17.43;100.00;95989.66;1017484;29;20123;-74
2023/10/13 00:14:50;;;;;;;0.30;0.30;;;;;;;17.43;100.00;95993.09;1022679;29;20094;-75
2023/10/13 00:15:27;;;;;;;6.03;1.20;;;;;;;17.39;100.00;95989.47;1026830;28;20041;-75
2023/10/13 00:15:58;;;;;;;0.45;0.45;;;;;;;17.38;100.00;95989.78;1025738;28;20599;-75
2023/10/13 00:16:30;;;;;;;0.35;0.20;;;;;;;17.36;100.00;95986.63;1021413;29;20030;-75
2023/10/13 00:17:04;;;;;;;0.47;0.47;;;;;;;17.36;100.00;95995.38;1018876;29;20433;-74
2023/10/13 00:17:38;;;;;;;1.20;0.40;;;;;;;17.36;100.00;95994.59;1018807;29;20023;-75
2023/10/13 00:18:15;;;;;;;0.85;0.85;;;;;;;17.34;100.00;95989.59;1013822;29;20071;-75
2023/10/13 00:18:45;;;;;;;1.65;0.57;;;;;;;17.33;100.00;95988.00;1016780;29;20032;-76
2023/10/13 00:19:16;;;;;;;0.47;0.47;;;;;;;17.32;100.00;95990.97;1018754;29;20031;-76
2023/10/13 00:19:46;;;;;;;1.40;1.35;;;;;;;17.30;100.00;95985.16;1011630;29;20039;-76
2023/10/13 00:20:33;;;;;;;0.75;0.35;;;;;;;17.25;100.00;95982.66;1010785;29;20074;-76
2023/10/13 00:21:12;;;;;;;0.10;0.10;;;;;;;17.28;100.00;95990.00;1011123;29;20091;-73
2023/10/13 00:21:42;;;;;;;0.30;0.30;;;;;;;17.31;100.00;95984.09;1015878;29;20024;-77
2023/10/13 00:22:15;;;;;;;0.63;0.60;;;;;;;17.31;100.00;95989.41;1014625;29;20132;-75
2023/10/13 00:22:48;;;;;;;2.85;0.50;;;;;;;17.20;100.00;95973.72;1011085;29;20033;-76
2023/10/13 00:23:21;;;;;;;0.30;0.30;;;;;;;17.26;100.00;95987.63;1011678;29;20038;-74
2023/10/13 00:23:54;;;;;;;0.45;0.32;;;;;;;17.22;100.00;95984.03;1015794;29;20032;-77
2023/10/13 00:24:29;;;;;;;0.50;0.50;;;;;;;17.23;100.00;95987.44;1020056;29;20107;-76
2023/10/13 00:25:03;;;;;;;1.35;0.20;;;;;;;17.21;100.00;95982.47;1024441;28;20391;-74
2023/10/13 00:25:43;;;;;;;0.45;0.45;;;;;;;17.23;100.00;95993.53;1022500;29;20031;-76
2023/10/13 00:26:17;;;;;;;18.83;0.63;;;;;;;17.21;100.00;95985.13;1019939;29;20042;-76
2023/10/13 00:26:48;;;;;;;0.80;0.25;;;;;;;17.14;100.00;95974.91;1023882;28;20030;-75
2023/10/13 00:27:29;;;;;;;0.95;0.50;;;;;;;17.20;100.00;95986.19;1018721;29;20381;-76
2023/10/13 00:28:01;;;;;;;0.57;0.57;;;;;;;17.18;100.00;95983.84;1014733;29;20032;-75
2023/10/13 00:28:45;;;;;;;0.75;0.60;;;;;;;17.15;100.00;95984.44;1014828;29;20569;-75
2023/10/13 00:29:16;;;;;;;0.25;0.25;;;;;;;17.11;100.00;95969.41;1022280;29;20149;-75
2023/10/13 00:29:47;;;;;;;0.28;0.28;;;;;;;17.14;100.00;95984.75;1018848;29;20358;-77
2023/10/13 00:30:22;;;;;;;0.22;0.22;;;;;;;17.07;100.00;95968.44;1016826;29;20123;-76
2023/10/13 00:30:59;;;;;;;0.88;0.55;;;;;;;17.07;100.00;95979.03;1016729;29;20052;-76
2023/10/13 00:31:36;;;;;;;0.47;0.40;;;;;;;17.09;100.00;95987.47;1014781;29;20541;-75
2023/10/13 00:32:11;;;;;;;0.47;0.22;;;;;;;17.09;100.00;95979.53;1025704;28;20513;-76
2023/10/13 00:32:47;;;;;;;0.20;0.20;;;;;;;17.08;100.00;95972.66;1018240;29;20114;-74
2023/10/13 00:33:22;;;;;;;0.30;0.25;;;;;;;17.13;100.00;95977.84;1016762;29;20379;-78
2023/10/13 00:33:55;;;;;;;1.40;0.68;;;;;;;17.11;100.00;95975.50;1013033;29;20025;-76
2023/10/13 00:34:27;;;;;;;0.70;0.70;;;;;;;17.09;100.00;95972.34;1018766;29;20070;-76
2023/10/13 00:34:58;;;;;;;0.13;0.13;;;;;;;17.09;100.00;95979.53;1019991;29;20023;-74
2023/10/13 00:35:29;;;;;;;0.65;0.55;;;;;;;17.03;100.00;95976.19;1024919;28;20023;-76
2023/10/13 00:36:01;;;;;;;0.57;0.57;;;;;;;17.05;100.00;95976.69;1022452;29;20019;-76
2023/10/13 00:36:34;;;;;;;1.35;0.90;;;;;;;17.02;100.00;95971.97;1022580;29;20609;-77
2023/10/13 00:37:27;;;;;;;0.20;0.20;;;;;;;16.88;100.00;95950.81;1020751;29;20572;-75
2023/10/13 00:38:03;;;;;;;1.88;0.47;;;;;;;17.00;100.00;95958.25;1018790;29;20035;-76
2023/10/13 00:38:35;;;;;;;0.82;0.82;;;;;;;17.00;100.00;95966.22;1009884;29;20063;-74
2023/10/13 00:39:06;;;;;;;0.77;0.55;;;;;;;17.04;100.00;95969.81;1014651;29;20119;-76
2023/10/13 00:39:40;;;;;;;0.20;0.10;;;;;;;17.07;100.00;95963.94;1014921;29;20031;-76
2023/10/13 00:40:39;;;;;;;1.98;0.63;;;;;;;17.04;100.00;95969.81;1007111;29;20017;-74
2023/10/13 00:41:12;;;;;;;0.55;0.55;;;;;;;17.07;100.00;95971.88;1014693;29;20020;-75
2023/10/13 00:41:52;;;;;;;0.10;0.10;;;;;;;17.05;100.00;95965.31;1015513;29;20100;-77
2023/10/13 00:42:50;;;;;;;0.50;0.50;;;;;;;17.04;100.00;95969.81;1017845;29;20115;-76
2023/10/13 00:44:05;;;;;;;0.43;0.25;;;;;;;17.07;100.00;95973.72;1018494;29;20075;-75
2023/10/13 00:44:41;;;;;;;1.38;0.95;;;;;;;17.12;100.00;95966.47;1022622;29;20424;-77
2023/10/13 00:45:16;;;;;;;0.32;0.32;;;;;;;17.11;100.00;95967.56;1018808;29;20489;-76
2023/10/13 00:45:57;;;;;;;0.95;0.47;;;;;;;17.13;100.00;95965.38;1018650;29;20460;-78
2023/10/13 00:46:33;;;;;;;2.13;0.52;;;;;;;17.11;100.00;95959.59;1010916;29;20024;-75
2023/10/13 00:47:07;;;;;;;0.20;0.20;;;;;;;17.18;100.00;95967.91;1018543;29;20042;-76
2023/10/13 00:47:47;;;;;;;0.15;0.13;;;;;;;17.18;100.00;95965.28;1018884;29;20027;-76
2023/10/13 00:48:18;;;;;;;0.50;0.50;;;;;;;17.15;100.00;95949.19;1021218;29;20104;-76
2023/10/13 00:48:52;;;;;;;0.70;0.70;;;;;;;17.18;100.00;95969.78;1015344;29;20463;-75
2023/10/13 00:49:22;;;;;;;0.10;0.10;;;;;;;17.20;100.00;95960.47;1014815;29;20020;-75
2023/10/13 00:49:53;;;;;;;0.22;0.20;;;;;;;17.17;100.00;95962.94;1022577;29;20050;-75
2023/10/13 00:50:23;;;;;;;0.10;0.10;;;;;;;17.17;100.00;95952.31;1010772;29;20036;-75
2023/10/13 00:51:02;;;;;;;0.38;0.38;;;;;;;17.22;100.00;95965.47;1010756;29;20140;-77
2023/10/13 00:51:34;;;;;;;0.80;0.47;;;;;;;17.26;100.00;95963.00;1003291;29;20036;-76
2023/10/13 00:52:06;;;;;;;0.28;0.28;;;;;;;17.16;100.00;95956.03;1012284;29;20399;-76
2023/10/13 00:52:37;;;;;;;0.10;0.10;;;;;;;17.23;100.00;95961.72;1021626;28;20139;-76
2023/10/13 00:53:08;;;;;;;0.32;0.20;;;;;;;17.23;100.00;95966.25;1022437;28;20042;-76
2023/10/13 00:53:44;;;;;;;0.30;0.28;;;;;;;17.17;100.00;95955.75;1018656;29;20020;-75
2023/10/13 00:54:16;;;;;;;0.98;0.50;;;;;;;17.19;100.00;95950.91;1018631;29;20115;-76
2023/10/13 00:54:46;;;;;;;0.03;0.03;;;;;;;17.33;100.00;95966.78;1010836;29;20048;-76
2023/10/13 00:55:18;;;;;;;0.60;0.55;;;;;;;17.33;100.00;95968.66;1010791;29;20059;-76
2023/10/13 00:55:48;;;;;;;0.22;0.22;;;;;;;17.26;100.00;95955.03;1014207;29;20057;-74
2023/10/13 00:56:21;;;;;;;0.20;0.20;;;;;;;17.33;100.00;95961.47;1019136;29;20106;-77
2023/10/13 00:57:40;;;;;;;0.10;0.10;;;;;;;17.44;100.00;95970.03;1014812;29;20052;-75
2023/10/13 00:58:12;;;;;;;1.33;1.23;;;;;;;17.43;100.00;95966.56;1014847;29;20032;-76
2023/10/13 00:58:42;;;;;;;2.13;0.57;;;;;;;17.39;100.00;95960.28;1013545;29;20120;-76
2023/10/13 00:59:14;;;;;;;0.68;0.30;;;;;;;17.42;100.00;95965.00;1021149;29;20071;-76
2023/10/13 00:59:47;;;;;;;0.75;0.75;;;;;;;17.37;100.00;95959.81;1022705;28;20078;-76
2023/10/13 01:00:24;;;;;;;0.45;0.40;;;;;;;17.36;100.00;95960.88;1026005;28;20446;-76
2023/10/13 01:01:17;;;;;;;0.10;0.10;;;;;;;17.44;100.00;95967.38;1013440;29;20067;-76
2023/10/13 01:01:53;;;;;;;0.32;0.30;;;;;;;17.45;100.00;95971.56;1022619;29;20070;-78
2023/10/13 01:03:07;;;;;;;0.30;0.30;;;;;;;17.44;100.00;95973.44;1025379;28;20042;-76
2023/10/13 01:03:38;;;;;;;0.90;0.47;;;;;;;17.44;100.00;95962.06;1022707;29;20032;-78
2023/10/13 01:04:11;;;;;;;0.13;0.13;;;;;;;17.47;100.00;95973.91;1014787;29;20028;-75
2023/10/13 01:04:42;;;;;;;1.10;0.70;;;;;;;17.47;100.00;95964.13;1008574;29;20028;-76
2023/10/13 01:05:19;;;;;;;0.38;0.38;;;;;;;17.45;100.00;95963.63;1015356;29;20039;-76
2023/10/13 01:05:54;;;;;;;0.25;0.25;;;;;;;17.44;100.00;95962.06;1020086;29;20019;-75
2023/10/13 01:06:25;;;;;;;4.03;0.85;;;;;;;17.42;100.00;95958.91;1014530;29;20031;-75
2023/10/13 01:06:56;;;;;;;0.17;0.17;;;;;;;17.46;100.00;95965.19;1018748;29;20163;-74
2023/10/13 01:07:26;;;;;;;0.00;0.00;;;;;;;17.35;100.00;95956.69;1018788;29;20745;-74
2023/10/13 01:08:01;;;;;;;0.43;0.35;;;;;;;17.42;100.00;95967.66;1022460;29;20023;-75
2023/10/13 01:08:34;;;;;;;0.47;0.47;;;;;;;17.38;100.00;95971.22;1018749;29;20035;-77
2023/10/13 01:09:12;;;;;;;1.38;0.40;;;;;;;17.34;100.00;95964.94;1014775;29;20039;-76
2023/10/13 01:09:42;;;;;;;0.60;0.38;;;;;;;17.27;100.00;95951.28;1017700;29;20569;-76
2023/10/13 01:10:14;;;;;;;0.98;0.98;;;;;;;17.40;100.00;95969.03;1014635;29;20028;-75
2023/10/13 01:10:45;;;;;;;3.83;0.90;;;;;;;17.38;100.00;95973.88;1019146;28;20037;-75
2023/10/13 01:11:15;;;;;;;0.98;0.88;;;;;;;17.36;100.00;95968.84;1026825;28;20038;-75
2023/10/13 01:11:53;;;;;;;0.52;0.52;;;;;;;17.36;100.00;95966.19;1026960;28;20030;-76
2023/10/13 01:12:24;;;;;;;1.45;0.65;;;;;;;17.44;100.00;95972.66;1022230;29;20037;-76
2023/10/13 01:12:55;;;;;;;0.43;0.43;;;;;;;17.42;100.00;95978.25;1018735;29;20043;-75
2023/10/13 01:13:26;;;;;;;0.63;0.30;;;;;;;17.41;100.00;95968.75;1018706;29;20036;-75
2023/10/13 01:13:58;;;;;;;1.77;1.05;;;;;;;17.38;100.00;95974.66;1018405;29;20023;-76
2023/10/13 01:14:29;;;;;;;0.15;0.13;;;;;;;17.38;100.00;95979.16;1023056;28;20459;-76
2023/10/13 01:14:59;;;;;;;1.02;0.95;;;;;;;17.36;100.00;95970.72;1028819;28;20038;-75
2023/10/13 01:15:32;;;;;;;0.00;0.00;;;;;;;17.36;100.00;95973.38;1026609;28;20030;-76
2023/10/13 01:16:04;;;;;;;0.57;0.32;;;;;;;17.36;100.00;95970.72;1018005;29;20536;-76
2023/10/13 01:16:35;;;;;;;0.50;0.50;;;;;;;17.39;100.00;95976.22;1013184;29;20036;-76
2023/10/13 01:17:06;;;;;;;2.22;1.25;;;;;;;17.38;100.00;95976.53;1018470;29;20115;-76
2023/10/13 01:17:36;;;;;;;2.53;0.47;;;;;;;17.36;100.00;95970.72;1019024;29;20035;-75
2023/10/13 01:18:12;;;;;;;0.98;0.90;;;;;;;17.44;100.00;95972.66;1018784;28;20733;-77
2023/10/13 01:18:48;;;;;;;1.08;1.00;;;;;;;17.41;100.00;95978.56;1021957;29;20482;-75
2023/10/13 01:19:24;;;;;;;0.47;0.47;;;;;;;17.40;100.00;95966.38;1010770;29;20457;-77
2023/10/13 01:19:58;;;;;;;0.10;0.10;;;;;;;17.37;100.00;95964.31;1011542;29;20123;-76
2023/10/13 01:20:28;;;;;;;0.40;0.40;;;;;;;17.28;100.00;95953.66;1010776;29;20110;-75
2023/10/13 01:20:59;;;;;;;1.20;0.90;;;;;;;17.31;100.00;95962.88;1006967;29;20123;-75
2023/10/13 01:21:29;;;;;;;0.22;0.22;;;;;;;17.33;100.00;95966.00;1014637;29;20083;-77
2023/10/13 01:22:04;;;;;;;0.85;0.85;;;;;;;17.34;100.00;95970.25;1014695;29;20027;-74
2023/10/13 01:22:36;;;;;;;0.73;0.73;;;;;;;17.34;100.00;95968.38;1017878;29;20103;-74
2023/10/13 01:23:18;;;;;;;0.20;0.10;;;;;;;17.30;100.00;95963.94;1022515;29;20042;-75
2023/10/13 01:23:50;;;;;;;0.25;0.20;;;;;;;17.30;100.00;95961.31;1019070;29;20035;-74
2023/10/13 01:24:24;;;;;;;0.30;0.28;;;;;;;17.31;100.00;95965.53;1018437;29;20032;-75
2023/10/13 01:25:04;;;;;;;0.00;0.00;;;;;;;17.31;100.00;95968.19;1016333;29;20043;-74
2023/10/13 01:25:34;;;;;;;0.35;0.30;;;;;;;17.17;100.00;95950.44;1021872;29;20500;-76
2023/10/13 01:26:05;;;;;;;1.63;1.52;;;;;;;17.30;100.00;95967.38;1026475;28;20117;-77
2023/10/13 01:26:39;;;;;;;0.57;0.13;;;;;;;17.22;100.00;95952.19;1030362;28;20022;-76
2023/10/13 01:27:24;;;;;;;0.45;0.45;;;;;;;17.28;100.00;95963.50;1026015;28;20029;-78
2023/10/13 01:27:55;;;;;;;2.42;1.25;;;;;;;17.28;100.00;95963.50;1022589;29;20027;-75
2023/10/13 01:28:25;;;;;;;0.45;0.32;;;;;;;17.25;100.00;95961.44;1018509;29;20502;-76
2023/10/13 01:28:59;;;;;;;2.92;0.93;;;;;;;17.26;100.00;95961.13;1013168;29;20024;-77
2023/10/13 01:29:30;;;;;;;0.10;0.10;;;;;;;17.28;100.00;95963.50;1010882;29;20521;-76
2023/10/13 01:30:05;;;;;;;0.50;0.50;;;;;;;17.22;100.00;95957.50;1011012;29;20032;-76
2023/10/13 01:30:38;;;;;;;1.48;1.13;;;;;;;17.27;100.00;95964.53;1019609;29;20030;-76
2023/10/13 01:31:09;;;;;;;0.35;0.35;;;;;;;17.28;100.00;95963.50;1023781;28;20047;-76
2023/10/13 01:31:47;;;;;;;5.38;0.32;;;;;;;17.25;100.00;95953.47;1018645;29;20039;-76
2023/10/13 01:32:21;;;;;;;4.53;1.15;;;;;;;17.27;100.00;95961.91;1013556;29;20028;-76
2023/10/13 01:32:54;;;;;;;0.45;0.45;;;;;;;17.25;100.00;95953.47;1014525;29;20047;-76
2023/10/13 01:33:28;;;;;;;0.75;0.75;;;;;;;17.26;100.00;95966.41;1014549;29;20039;-76
2023/10/13 01:33:58;;;;;;;0.63;0.47;;;;;;;17.19;100.00;95961.53;1014680;29;20028;-77
2023/10/13 01:34:33;;;;;;;1.30;0.77;;;;;;;17.19;100.00;95961.53;1019429;29;20032;-77
2023/10/13 01:35:06;;;;;;;0.43;0.43;;;;;;;17.17;100.00;95966.38;1025139;28;20027;-78
2023/10/13 01:35:42;;;;;;;0.10;0.10;;;;;;;17.12;100.00;95955.84;1030574;28;20030;-77
2023/10/13 01:36:12;;;;;;;0.50;0.40;;;;;;;17.10;100.00;95963.34;1016757;29;20062;-77
2023/10/13 01:36:44;;;;;;;1.48;0.50;;;;;;;17.09;100.00;95961.75;1014606;29;20024;-77
2023/10/13 01:37:16;;;;;;;0.00;0.00;;;;;;;17.09;100.00;95967.06;1014484;29;20036;-77
2023/10/13 01:37:46;;;;;;;0.85;0.68;;;;;;;17.08;100.00;95960.19;1015120;29;20087;-75
2023/10/13 01:38:16;;;;;;;0.95;0.95;;;;;;;17.01;100.00;95949.22;1014679;29;20450;-76
2023/10/13 01:38:48;;;;;;;0.20;0.20;;;;;;;17.02;100.00;95950.00;1020049;28;20039;-76
2023/10/13 01:39:26;;;;;;;0.90;0.55;;;;;;;17.02;100.00;95956.06;1022408;29;20346;-76
2023/10/13 01:39:56;;;;;;;0.30;0.30;;;;;;;17.00;100.00;95963.56;1022616;28;20116;-76
2023/10/13 01:40:33;;;;;;;0.15;0.15;;;;;;;16.94;100.00;95951.50;1023685;28;20108;-77
2023/10/13 01:41:08;;;;;;;0.15;0.15;;;;;;;16.94;100.00;95964.75;1014440;29;20032;-77
2023/10/13 01:41:39;;;;;;;0.90;0.25;;;;;;;16.89;100.00;95962.97;1014776;29;20024;-75
2023/10/13 01:42:14;;;;;;;0.15;0.15;;;;;;;16.86;100.00;95962.78;1014491;29;20036;-76
2023/10/13 01:42:46;;;;;;;0.47;0.45;;;;;;;16.81;100.00;95955.72;1018854;28;20035;-76
2023/10/13 01:43:17;;;;;;;0.57;0.35;;;;;;;16.79;100.00;95959.75;1018418;29;20087;-74
2023/10/13 01:43:48;;;;;;;1.83;0.50;;;;;;;16.75;100.00;95962.19;1018331;29;20504;-76
2023/10/13 01:44:19;;;;;;;0.55;0.32;;;;;;;16.70;100.00;95957.78;1026104;28;20031;-77
2023/10/13 01:44:50;;;;;;;3.17;0.80;;;;;;;16.59;100.00;95948.44;1022430;29;20183;-77
2023/10/13 01:45:21;;;;;;;13.95;1.27;;;;;;;16.58;100.00;95954.03;1022552;28;20090;-75
2023/10/13 01:45:53;;;;;;;1.20;0.65;;;;;;;16.53;100.00;95952.25;1018190;29;20139;-76
2023/10/13 01:46:23;;;;;;;0.17;0.17;;;;;;;16.50;100.00;95950.22;1011139;29;20530;-77
2023/10/13 01:46:54;;;;;;;0.60;0.47;;;;;;;16.51;100.00;95965.03;1019010;29;20105;-77
2023/10/13 01:47:27;;;;;;;0.17;0.17;;;;;;;16.46;100.00;95965.13;1022548;28;20409;-77
2023/10/13 01:47:58;;;;;;;0.52;0.52;;;;;;;16.40;100.00;95961.03;1026517;28;20139;-77
2023/10/13 01:48:32;;;;;;;0.77;0.65;;;;;;;16.38;100.00;95965.81;1018025;29;20147;-77
2023/10/13 01:49:02;;;;;;;0.20;0.20;;;;;;;16.33;100.00;95960.59;1021042;28;20105;-75
2023/10/13 01:49:41;;;;;;;1.42;0.75;;;;;;;16.25;100.00;95964.72;1022523;29;20086;-76
2023/10/13 01:50:20;;;;;;;0.68;0.55;;;;;;;16.20;100.00;95956.88;1026466;28;20034;-77
2023/10/13 01:50:59;;;;;;;0.35;0.35;;;;;;;16.18;100.00;95964.31;1018477;29;20071;-75
2023/10/13 01:51:30;;;;;;;0.93;0.90;;;;;;;16.10;100.00;95963.13;1018549;29;20034;-76
2023/10/13 01:52:03;;;;;;;3.10;1.27;;;;;;;16.03;100.00;95955.59;1018615;29;20050;-76
2023/10/13 01:52:34;;;;;;;1.48;0.65;;;;;;;16.00;100.00;95952.72;1023275;28;20727;-77
2023/10/13 01:53:13;;;;;;;2.05;0.57;;;;;;;16.01;100.00;95962.22;1022557;29;20027;-77
2023/10/13 01:53:43;;;;;;;0.88;0.75;;;;;;;15.97;100.00;95963.91;1022410;29;20051;-75
2023/10/13 01:54:15;;;;;;;0.95;0.30;;;;;;;15.92;100.00;95963.97;1018391;29;20133;-77
2023/10/13 01:54:46;;;;;;;0.47;0.38;;;;;;;15.88;100.00;95955.06;1016055;29;20097;-78
2023/10/13 01:55:19;;;;;;;0.32;0.32;;;;;;;15.82;100.00;95962.28;1014721;29;20043;-75
2023/10/13 01:55:50;;;;;;;0.20;0.20;;;;;;;15.77;100.00;95960.50;1018913;29;20024;-76
2023/10/13 01:56:23;;;;;;;0.35;0.35;;;;;;;15.78;100.00;95963.94;1019113;29;20028;-75
2023/10/13 01:56:54;;;;;;;0.22;0.22;;;;;;;15.78;100.00;95967.38;1010747;29;20032;-76
2023/10/13 01:57:25;;;;;;;1.90;0.85;;;;;;;15.73;100.00;95962.16;1014437;29;20035;-77
2023/10/13 01:57:55;;;;;;;0.28;0.22;;;;;;;15.68;100.00;95962.25;1018403;29;20035;-77
2023/10/13 01:58:28;;;;;;;0.65;0.47;;;;;;;15.68;100.00;95961.47;1022552;29;20034;-76
2023/10/13 01:58:59;;;;;;;0.57;0.15;;;;;;;15.65;100.00;95962.78;1018360;29;20047;-78
2023/10/13 01:59:30;;;;;;;0.38;0.38;;;;;;;15.66;100.00;95964.41;1007449;29;20025;-76
2023/10/13 02:00:18;;;;;;;0.93;0.57;;;;;;;15.64;100.00;95971.81;1014385;29;20091;-75
2023/10/13 02:00:48;;;;;;;0.68;0.68;;;;;;;15.62;100.00;95966.00;1017071;29;20155;-78
2023/10/13 02:01:28;;;;;;;0.63;0.63;;;;;;;15.58;100.00;95962.38;1019233;29;20210;-77
2023/10/13 02:02:01;;;;;;;0.90;0.82;;;;;;;15.57;100.00;95960.81;1021886;29;20500;-76
2023/10/13 02:02:31;;;;;;;0.35;0.35;;;;;;;15.57;100.00;95969.53;1013907;29;20032;-74
2023/10/13 02:03:02;;;;;;;1.23;0.98;;;;;;;15.57;100.00;95966.09;1015932;29;20058;-76
2023/10/13 02:03:33;;;;;;;1.80;1.05;;;;;;;15.56;100.00;95965.31;1018778;29;20095;-76
2023/10/13 02:04:03;;;;;;;0.10;0.10;;;;;;;15.53;100.00;95970.41;1018918;29;20027;-76
2023/10/13 02:04:34;;;;;;;0.38;0.20;;;;;;;15.53;100.00;95968.53;1018565;29;20465;-77
2023/10/13 02:05:05;;;;;;;3.20;0.25;;;;;;;15.45;100.00;95957.81;1018649;29;20474;-74
2023/10/13 02:05:36;;;;;;;1.02;0.73;;;;;;;15.50;100.00;95970.97;1026470;28;20027;-77
2023/10/13 02:06:10;;;;;;;3.03;0.90;;;;;;;15.42;100.00;95958.38;1026327;28;20023;-77
2023/10/13 02:06:40;;;;;;;0.32;0.10;;;;;;;15.46;100.00;95964.66;1022220;29;20106;-73
2023/10/13 02:07:14;;;;;;;0.47;0.47;;;;;;;15.46;100.00;95967.31;1013858;29;20036;-74
2023/10/13 02:07:45;;;;;;;0.20;0.20;;;;;;;15.48;100.00;95970.47;1014547;29;20036;-75
2023/10/13 02:08:18;;;;;;;0.63;0.63;;;;;;;15.45;100.00;95971.03;1009434;29;20035;-77
2023/10/13 02:08:56;;;;;;;0.30;0.28;;;;;;;15.46;100.00;95967.31;1026353;28;20030;-77
2023/10/13 02:09:27;;;;;;;0.10;0.10;;;;;;;15.45;100.00;95969.16;1018506;29;20127;-77
2023/10/13 02:09:57;;;;;;;0.45;0.30;;;;;;;15.46;100.00;95968.13;1022422;29;20101;-76
2023/10/13 02:10:30;;;;;;;0.30;0.17;;;;;;;15.44;100.00;95966.81;1010713;29;20021;-77
2023/10/13 02:11:01;;;;;;;0.40;0.40;;;;;;;15.41;100.00;95967.41;1015058;29;20024;-74
2023/10/13 02:11:32;;;;;;;0.10;0.10;;;;;;;15.35;100.00;95957.97;1012371;29;20402;-73
2023/10/13 02:12:02;;;;;;;1.75;0.30;;;;;;;15.37;100.00;95956.63;1018542;29;20024;-77
2023/10/13 02:12:42;;;;;;;1.45;1.02;;;;;;;15.42;100.00;95968.97;1013916;29;20035;-78
2023/10/13 02:13:15;;;;;;;0.22;0.22;;;;;;;15.42;100.00;95966.31;1014567;29;20703;-77
2023/10/13 02:13:51;;;;;;;0.30;0.30;;;;;;;15.37;100.00;95951.31;1017926;29;20028;-76
2023/10/13 02:14:25;;;;;;;0.75;0.65;;;;;;;15.44;100.00;95967.59;1014678;29;20424;-76
2023/10/13 02:14:56;;;;;;;0.00;0.00;;;;;;;15.42;100.00;95964.47;1010701;29;20537;-76
2023/10/13 02:15:26;;;;;;;0.17;0.17;;;;;;;15.42;100.00;95968.97;1010730;29;20021;-75
2023/10/13 02:15:57;;;;;;;0.28;0.28;;;;;;;15.41;100.00;95967.41;1012620;29;20578;-77
2023/10/13 02:16:30;;;;;;;0.13;0.13;;;;;;;15.40;100.00;95965.84;1019008;29;20031;-76
2023/10/13 02:17:13;;;;;;;0.40;0.40;;;;;;;15.35;100.00;95957.97;1018546;29;20552;-75
2023/10/13 02:17:44;;;;;;;1.85;0.60;;;;;;;15.35;100.00;95961.38;1014705;29;20499;-76
2023/10/13 02:18:26;;;;;;;0.47;0.47;;;;;;;15.29;100.00;95955.41;1016582;29;20060;-77
2023/10/13 02:18:57;;;;;;;0.80;0.45;;;;;;;15.31;100.00;95963.81;1014914;29;20016;-77
2023/10/13 02:19:28;;;;;;;0.00;0.00;;;;;;;15.27;100.00;95951.47;1018002;29;20026;-76
2023/10/13 02:20:06;;;;;;;0.00;0.00;;;;;;;15.30;100.00;95967.56;1017046;29;20019;-77
2023/10/13 02:20:43;;;;;;;0.10;0.10;;;;;;;15.30;100.00;95962.25;1023741;28;20031;-76
2023/10/13 02:21:13;;;;;;;0.45;0.45;;;;;;;15.20;100.00;95951.84;1028717;28;20385;-78
2023/10/13 02:21:45;;;;;;;1.95;0.63;;;;;;;15.30;100.00;95959.63;1022319;28;20031;-76
2023/10/13 02:22:26;;;;;;;0.20;0.10;;;;;;;15.31;100.00;95958.53;1013601;29;20087;-76
2023/10/13 02:22:57;;;;;;;0.32;0.32;;;;;;;15.33;100.00;95961.69;1010385;29;20540;-76
2023/10/13 02:23:29;;;;;;;0.30;0.30;;;;;;;15.26;100.00;95945.41;1015937;29;20028;-78
2023/10/13 02:23:59;;;;;;;2.33;0.57;;;;;;;15.33;100.00;95956.41;1014725;29;20021;-77
2023/10/13 02:24:30;;;;;;;0.95;0.55;;;;;;;15.37;100.00;95961.13;1014123;29;20501;-75
2023/10/13 02:25:05;;;;;;;2.00;0.45;;;;;;;15.30;100.00;95951.69;1011154;29;20097;-75
2023/10/13 02:25:42;;;;;;;0.35;0.35;;;;;;;15.29;100.00;95950.13;1019610;29;20015;-76
2023/10/13 02:26:29;;;;;;;0.50;0.50;;;;;;;15.38;100.00;95954.75;1022821;29;20066;-76
2023/10/13 02:27:09;;;;;;;3.20;0.68;;;;;;;15.36;100.00;95954.25;1022562;29;20039;-75
2023/10/13 02:27:43;;;;;;;0.22;0.22;;;;;;;15.29;100.00;95950.13;1015320;29;20020;-78
2023/10/13 02:28:14;;;;;;;0.68;0.68;;;;;;;15.35;100.00;95957.97;1022937;29;20022;-77
2023/10/13 02:28:50;;;;;;;0.55;0.55;;;;;;;15.32;100.00;95954.03;1018844;29;20043;-74
2023/10/13 02:29:21;;;;;;;0.30;0.30;;;;;;;15.29;100.00;95950.13;1019007;29;20038;-74
2023/10/13 02:29:58;;;;;;;0.40;0.40;;;;;;;15.37;100.00;95955.84;1017833;29;20478;-76
2023/10/13 02:30:29;;;;;;;0.20;0.20;;;;;;;15.35;100.00;95953.47;1024420;28;20047;-75
2023/10/13 02:31:03;;;;;;;1.48;0.55;;;;;;;15.35;100.00;95952.69;1023150;29;20031;-76
2023/10/13 02:31:37;;;;;;;0.17;0.00;;;;;;;15.35;100.00;95956.09;1015061;29;20605;-76
2023/10/13 02:32:18;;;;;;;19.48;2.75;;;;;;;15.33;100.00;95955.63;1019481;29;20031;-76
2023/10/13 02:32:49;;;;;;;1.08;1.02;;;;;;;15.30;100.00;95953.56;1021309;29;20016;-76
2023/10/13 02:33:24;;;;;;;0.80;0.80;;;;;;;15.28;100.00;95959.09;1022900;28;20512;-75
2023/10/13 02:33:54;;;;;;;0.40;0.40;;;;;;;15.32;100.00;95952.19;1017269;29;20031;-76
2023/10/13 02:34:25;;;;;;;2.03;0.77;;;;;;;15.30;100.00;95956.97;1012992;29;20044;-76
2023/10/13 02:34:58;;;;;;;0.40;0.40;;;;;;;15.32;100.00;95957.47;1015289;29;20029;-75
2023/10/13 02:35:41;;;;;;;;;;;;;;;15.30;100.00;95964.91;1019240;29;20039;-76
2023/10/13 02:36:12;;;;;;;0.20;0.20;;;;;;;15.30;100.00;95956.97;1023199;28;19925;-74
2023/10/13 02:36:48;;;;;;;0.52;0.38;;;;;;;15.27;100.00;95960.19;1027194;28;20073;-75
2023/10/13 02:37:20;;;;;;;1.48;0.45;;;;;;;15.31;100.00;95955.88;1026720;28;20480;-75
2023/10/13 02:37:55;;;;;;;2.65;0.90;;;;;;;15.30;100.00;95959.63;1023050;29;20047;-74
2023/10/13 02:38:35;;;;;;;1.27;0.85;;;;;;;15.30;100.00;95953.56;1018858;29;20076;-75